ETHF/FRZ METAR and TAF weather

Enter ICAO airport designator
Station Type Date Time Source
ETHF METAR 2020/02/21 14:20 UTC NOAA

ETHF 211420Z 24013KT 9999 FEW040 BKN100 07/M01 Q1026 BLU


Station Type Date Time Source
ETHF Decoded METAR 2020/02/21 14:20 UTC NOAA

Fritzlar, Germany (ETHF) 51-07N 009-17E 181M
Feb 21, 2020 - 09:20 AM EST / 2020.02.21 1420 UTC
Wind: from the WSW (240 degrees) at 15 MPH (13 KT):0
Visibility: greater than 7 mile(s):0
Sky conditions: mostly cloudy
Temperature: 44 F (7 C)
Dew Point: 30 F (-1 C)
Relative Humidity: 56%
Pressure (altimeter): 30.30 in. Hg (1026 hPa)
ob: ETHF 211420Z 24013KT 9999 FEW040 BKN100 07/M01 Q1026 BLU
cycle: 14

Station Type Date Time Source
ETHF TAF 2020/02/03 18:30 UTC NOAA

TAF ETHF 031723Z 0318/0413 23006KT 9999 NSW BKN030
TEMPO 0318/0403 25005KT 5000 RA FEW010 BKN020

Example: see airport list